Time;durP1;ratioP1;P1;durP2;ratioP2;P2;SDS_P1;SDS_P2;PMS_P1;PMS_P2;Temp;Humidity;BMP_temperature;BMP_pressure;BME280_temperature;BME280_humidity;BME280_pressure;Samples;Min_cycle;Max_cycle;Signal;HPM_P1;HPM_P2
2021/12/05 00:22:56;;;;;;;4.43;2.03;;;6.00;99.90;;;;;;4990816;28;20466;-72
2021/12/05 00:25:28;;;;;;;7.77;2.90;;;6.00;99.90;;;;;;4966317;28;20930;-69
2021/12/05 00:33:42;;;;;;;6.70;2.07;;;6.00;99.90;;;;;;4968632;28;20408;-71
2021/12/05 00:36:57;;;;;;;9.17;3.07;;;6.00;99.90;;;;;;4969392;28;20478;-69
2021/12/05 00:57:46;;;;;;;8.40;2.50;;;6.00;99.90;;;;;;4930549;29;20996;-69
2021/12/05 01:08:59;;;;;;;6.27;2.30;;;6.00;99.90;;;;;;4950450;28;20475;-70
2021/12/05 01:11:46;;;;;;;7.43;2.27;;;6.00;99.90;;;;;;4972029;28;20410;-69
2021/12/05 01:16:46;;;;;;;3.50;1.80;;;6.10;99.90;;;;;;4951727;28;20424;-67
2021/12/05 01:19:15;;;;;;;5.73;2.13;;;5.80;99.90;;;;;;4949252;28;20448;-69
2021/12/05 01:21:41;;;;;;;11.30;2.80;;;5.90;99.90;;;;;;4951517;28;20419;-69
2021/12/05 01:26:50;;;;;;;9.30;2.40;;;5.70;99.90;;;;;;4955550;28;20729;-70
2021/12/05 01:29:42;;;;;;;3.60;2.10;;;5.50;99.90;;;;;;4965323;28;20492;-71
2021/12/05 01:43:05;;;;;;;10.40;2.77;;;5.70;99.90;;;;;;4963740;28;20523;-73
2021/12/05 01:45:53;;;;;;;8.73;2.03;;;5.70;99.90;;;;;;4970143;28;20179;-72
2021/12/05 01:48:52;;;;;;;8.83;2.20;;;5.80;99.90;;;;;;4952709;28;20953;-69
2021/12/05 01:56:49;;;;;;;6.30;2.67;;;5.80;99.90;;;;;;4951694;28;20420;-73
2021/12/05 02:15:29;;;;;;;8.80;2.37;;;5.50;99.90;;;;;;4985697;28;20417;-70
2021/12/05 02:34:29;;;;;;;4.43;2.30;;;5.50;99.90;;;;;;4968811;28;20925;-70
2021/12/05 02:41:52;;;;;;;7.43;3.00;;;5.60;99.90;;;;;;4977673;28;20941;-69
2021/12/05 02:46:47;;;;;;;5.20;2.40;;;5.70;99.90;;;;;;4959021;28;20523;-68
2021/12/05 02:49:15;;;;;;;5.03;2.10;;;5.60;99.90;;;;;;4947943;28;20464;-69
2021/12/05 02:51:50;;;;;;;6.17;2.33;;;5.50;99.90;;;;;;4950079;28;20419;-71
2021/12/05 02:54:17;;;;;;;6.73;2.57;;;5.50;99.90;;;;;;4947471;28;20502;-69
2021/12/05 02:56:47;;;;;;;5.90;2.60;;;5.50;99.90;;;;;;4961982;28;20490;-70
2021/12/05 03:02:00;;;;;;;6.27;1.97;;;5.50;99.90;;;;;;4977115;28;20461;-69
2021/12/05 03:04:30;;;;;;;6.67;2.77;;;5.40;99.90;;;;;;4985578;28;20831;-69
2021/12/05 03:06:57;;;;;;;7.93;2.83;;;5.60;99.90;;;;;;4956576;28;20510;-71
2021/12/05 03:09:24;;;;;;;6.73;2.40;;;5.60;99.90;;;;;;4948939;28;20519;-68
2021/12/05 03:11:51;;;;;;;7.27;2.60;;;5.60;99.90;;;;;;4973393;28;20518;-70
2021/12/05 03:14:17;;;;;;;5.20;2.70;;;5.60;99.90;;;;;;4984353;28;20421;-71
2021/12/05 03:16:43;;;;;;;8.57;3.13;;;5.60;99.90;;;;;;4960676;28;20428;-69
2021/12/05 03:19:10;;;;;;;8.43;2.60;;;5.60;99.90;;;;;;4949040;28;20197;-70
2021/12/05 03:21:37;;;;;;;7.80;2.37;;;5.60;99.90;;;;;;4949595;28;20408;-72
2021/12/05 03:24:05;;;;;;;6.10;2.60;;;5.60;99.90;;;;;;4948130;28;20424;-69
2021/12/05 03:26:33;;;;;;;6.10;2.67;;;5.50;99.90;;;;;;4961228;28;20431;-70
2021/12/05 03:28:59;;;;;;;6.93;2.27;;;5.50;99.90;;;;;;4968395;28;20513;-68
2021/12/05 03:31:28;;;;;;;7.73;2.33;;;5.40;99.90;;;;;;4983841;28;20442;-68
2021/12/05 03:33:55;;;;;;;4.80;2.63;;;5.30;99.90;;;;;;4968528;28;20523;-69
2021/12/05 03:36:21;;;;;;;5.03;2.13;;;5.30;99.90;;;;;;4958301;28;20499;-69
2021/12/05 03:38:47;;;;;;;8.13;2.03;;;5.30;99.90;;;;;;4948075;28;20432;-70
2021/12/05 03:41:13;;;;;;;6.10;2.07;;;5.30;99.90;;;;;;4970861;28;20466;-72
2021/12/05 03:43:41;;;;;;;6.00;2.20;;;5.40;99.90;;;;;;4967951;28;20226;-72
2021/12/05 03:46:06;;;;;;;3.80;2.20;;;5.40;99.90;;;;;;4960970;28;21032;-69
2021/12/05 03:48:37;;;;;;;4.93;2.23;;;5.40;99.90;;;;;;4955377;28;20647;-69
2021/12/05 03:51:03;;;;;;;8.00;2.40;;;5.40;99.90;;;;;;4983537;28;20176;-69
2021/12/05 03:53:29;;;;;;;5.73;2.07;;;5.40;99.90;;;;;;4961234;28;20443;-69
2021/12/05 03:55:56;;;;;;;4.50;2.20;;;5.30;99.90;;;;;;4948882;28;20408;-70
2021/12/05 03:58:22;;;;;;;4.97;2.00;;;5.20;99.90;;;;;;4947730;28;20224;-69
2021/12/05 04:00:51;;;;;;;3.17;2.00;;;5.20;99.90;;;;;;4949367;28;20412;-72
2021/12/05 04:03:18;;;;;;;7.90;1.60;;;5.20;99.90;;;;;;4951861;28;20875;-72
2021/12/05 04:05:45;;;;;;;6.83;2.10;;;5.10;99.90;;;;;;4983688;28;20430;-69
2021/12/05 04:08:13;;;;;;;5.07;2.13;;;5.10;99.90;;;;;;4987142;28;20525;-73
2021/12/05 04:10:43;;;;;;;11.13;2.20;;;5.10;99.90;;;;;;4983856;28;20919;-71
2021/12/05 04:13:09;;;;;;;2.80;1.70;;;5.20;99.90;;;;;;4966564;28;20455;-69
2021/12/05 04:15:35;;;;;;;5.20;1.87;;;5.20;99.90;;;;;;4986568;28;20433;-69
2021/12/05 04:18:00;;;;;;;4.60;2.00;;;5.20;99.90;;;;;;4990042;28;20425;-68
2021/12/05 04:20:28;;;;;;;3.07;1.87;;;5.20;99.90;;;;;;4991334;28;20991;-69
2021/12/05 04:22:54;;;;;;;2.80;1.73;;;5.20;99.90;;;;;;4989807;28;20175;-72
2021/12/05 04:25:21;;;;;;;8.77;2.13;;;5.20;99.90;;;;;;4950605;28;20420;-71
2021/12/05 04:27:49;;;;;;;6.27;2.00;;;5.30;99.90;;;;;;4952210;28;20424;-69
2021/12/05 04:30:19;;;;;;;7.87;1.93;;;5.20;99.90;;;;;;4952414;28;20965;-69
2021/12/05 04:32:45;;;;;;;6.13;1.93;;;5.30;99.90;;;;;;4951425;28;20843;-68
2021/12/05 04:35:10;;;;;;;4.00;2.13;;;5.30;99.90;;;;;;4960381;28;20510;-70
2021/12/05 04:37:37;;;;;;;6.43;2.77;;;5.30;99.90;;;;;;4955844;28;20228;-69
2021/12/05 04:40:05;;;;;;;4.73;2.27;;;5.30;99.90;;;;;;4968114;28;20695;-71
2021/12/05 04:42:31;;;;;;;8.13;2.10;;;5.30;99.90;;;;;;4980261;28;20877;-70
2021/12/05 04:44:57;;;;;;;4.20;1.90;;;5.30;99.90;;;;;;4958179;28;20476;-68
2021/12/05 04:47:22;;;;;;;4.53;2.27;;;5.30;99.90;;;;;;4951265;28;20363;-67
2021/12/05 04:49:49;;;;;;;4.03;1.93;;;5.30;99.90;;;;;;4949868;28;20675;-68
2021/12/05 04:52:15;;;;;;;6.73;2.27;;;5.30;99.90;;;;;;4950429;28;20181;-67
2021/12/05 04:54:41;;;;;;;4.73;2.10;;;5.40;99.90;;;;;;4965166;28;20633;-68
2021/12/05 04:57:07;;;;;;;4.80;1.73;;;5.40;99.90;;;;;;4985604;28;20773;-68
2021/12/05 04:59:36;;;;;;;2.70;1.70;;;5.40;99.90;;;;;;4970852;28;20184;-68
2021/12/05 05:02:04;;;;;;;9.90;1.70;;;5.40;99.90;;;;;;4977325;28;20247;-69
2021/12/05 05:04:30;;;;;;;4.83;2.03;;;5.20;99.90;;;;;;4988339;28;20410;-68
2021/12/05 05:07:18;;;;;;;6.57;2.23;;;5.20;99.90;;;;;;4988829;28;20485;-69
2021/12/05 05:09:45;;;;;;;13.20;2.20;;;5.20;99.90;;;;;;4988656;28;20266;-68
2021/12/05 05:12:11;;;;;;;8.80;2.40;;;5.20;99.90;;;;;;4978837;28;20497;-68
2021/12/05 05:14:38;;;;;;;8.63;2.63;;;5.10;99.90;;;;;;4989484;28;20908;-70
2021/12/05 05:17:04;;;;;;;6.60;1.90;;;5.10;99.90;;;;;;4988419;28;20171;-70
2021/12/05 05:19:38;;;;;;;6.97;2.77;;;5.10;99.90;;;;;;4988873;28;20418;-68
2021/12/05 05:30:10;;;;;;;4.63;1.90;;;5.20;99.90;;;;;;4951626;28;20556;-70
2021/12/05 05:46:00;;;;;;;6.93;2.10;;;5.10;99.90;;;;;;4970465;28;20589;-71
2021/12/05 05:50:52;;;;;;;8.20;2.40;;;5.10;99.90;;;;;;4950538;29;20894;-68
2021/12/05 05:53:18;;;;;;;11.80;2.73;;;5.00;99.90;;;;;;4950412;28;20626;-69
2021/12/05 05:55:44;;;;;;;6.40;2.50;;;5.00;99.90;;;;;;4950083;28;20413;-69
2021/12/05 05:58:14;;;;;;;3.47;2.40;;;4.90;99.90;;;;;;4961576;28;20952;-69
2021/12/05 06:00:53;;;;;;;6.23;2.30;;;5.00;99.90;;;;;;4949025;29;20626;-71
2021/12/05 06:03:22;;;;;;;3.60;2.13;;;5.00;99.90;;;;;;4950152;28;20414;-70
2021/12/05 06:05:55;;;;;;;7.23;2.60;;;5.00;99.90;;;;;;4950241;28;20426;-72
2021/12/05 06:08:24;;;;;;;3.83;2.07;;;4.60;99.90;;;;;;4958912;28;20443;-69
2021/12/05 06:10:51;;;;;;;3.43;2.40;;;4.90;99.90;;;;;;4970192;28;20410;-70
2021/12/05 06:13:18;;;;;;;3.63;2.20;;;4.90;99.90;;;;;;4984293;28;20440;-70
2021/12/05 06:15:46;;;;;;;9.13;2.80;;;4.90;99.90;;;;;;4950185;28;20408;-73
2021/12/05 06:18:12;;;;;;;5.27;2.07;;;4.90;99.90;;;;;;4950024;28;20483;-69
2021/12/05 06:20:38;;;;;;;3.50;1.90;;;4.90;99.90;;;;;;4948611;28;20426;-69
2021/12/05 06:23:04;;;;;;;2.73;1.67;;;4.90;99.90;;;;;;4950378;28;20422;-70
2021/12/05 06:25:33;;;;;;;10.13;2.40;;;4.90;99.90;;;;;;4967742;28;20429;-71
2021/12/05 06:28:03;;;;;;;9.40;2.50;;;4.80;99.90;;;;;;4967749;28;20239;-72
2021/12/05 06:30:48;;;;;;;2.13;1.63;;;4.80;99.90;;;;;;4949771;28;20794;-69
2021/12/05 06:46:28;;;;;;;3.37;1.97;;;4.70;99.90;;;;;;4987725;28;20442;-70
2021/12/05 06:48:54;;;;;;;9.33;2.23;;;4.80;99.90;;;;;;4959152;28;21088;-72
2021/12/05 06:51:26;;;;;;;5.40;1.87;;;4.80;99.90;;;;;;4949922;29;20441;-70
2021/12/05 06:53:53;;;;;;;2.50;1.90;;;4.90;99.90;;;;;;4949003;28;20255;-69
2021/12/05 06:56:19;;;;;;;4.00;2.20;;;4.90;99.90;;;;;;4950174;28;20735;-70
2021/12/05 06:58:46;;;;;;;4.37;2.00;;;4.80;99.90;;;;;;4961463;28;20509;-70
2021/12/05 07:01:12;;;;;;;5.17;1.97;;;4.90;99.90;;;;;;4975990;28;20859;-70
2021/12/05 07:03:42;;;;;;;5.93;1.57;;;4.90;99.90;;;;;;4979443;28;20410;-75
2021/12/05 07:06:11;;;;;;;6.10;2.00;;;4.90;99.90;;;;;;4975092;28;20564;-72
2021/12/05 07:08:40;;;;;;;3.40;1.73;;;5.00;99.90;;;;;;4948627;28;20447;-69
2021/12/05 07:11:15;;;;;;;4.13;1.73;;;4.90;99.90;;;;;;4968143;28;20737;-72
2021/12/05 07:16:20;;;;;;;7.50;2.07;;;4.90;99.90;;;;;;4988596;28;20411;-73
2021/12/05 07:19:12;;;;;;;3.53;1.83;;;4.90;99.90;;;;;;4987248;28;20430;-70
2021/12/05 07:24:33;;;;;;;12.50;5.50;;;4.90;99.90;;;;;;4952496;28;20510;-70
2021/12/05 07:43:00;;;;;;;9.80;2.93;;;5.30;99.90;;;;;;4968570;28;20788;-68
2021/12/05 07:45:34;;;;;;;4.57;1.87;;;5.30;99.90;;;;;;4968435;28;20168;-73
2021/12/05 07:48:09;;;;;;;4.97;1.83;;;5.30;99.90;;;;;;4982665;28;20454;-71
2021/12/05 07:50:45;;;;;;;4.13;2.30;;;5.40;99.90;;;;;;4979728;28;20506;-69
2021/12/05 07:53:19;;;;;;;5.07;1.93;;;5.40;99.90;;;;;;4969238;28;20438;-70
2021/12/05 07:55:46;;;;;;;3.97;1.60;;;5.50;99.90;;;;;;4971806;28;20487;-70
2021/12/05 15:48:36;;;;;;;8.43;4.33;;;4.20;99.90;;;;;;5081316;27;20579;-69
2021/12/05 15:51:06;;;;;;;5.83;3.53;;;4.40;99.90;;;;;;5075220;28;20956;-69
2021/12/05 15:53:35;;;;;;;6.23;4.17;;;4.50;99.90;;;;;;5062844;28;20888;-69
2021/12/05 15:56:05;;;;;;;3.93;2.93;;;4.70;99.90;;;;;;5063378;28;20423;-69
2021/12/05 15:58:39;;;;;;;4.00;3.17;;;4.90;99.90;;;;;;5063482;28;20524;-72
2021/12/05 16:01:12;;;;;;;4.50;3.40;;;5.00;99.90;;;;;;5063335;28;20423;-72
2021/12/05 16:03:47;;;;;;;9.47;4.30;;;5.30;99.90;;;;;;5063659;28;20430;-71
2021/12/05 16:06:15;;;;;;;17.60;7.80;;;5.40;99.90;;;;;;5063765;28;20426;-67
2021/12/05 16:08:42;;;;;;;14.87;9.40;;;5.60;99.90;;;;;;5061702;28;20454;-69
2021/12/05 16:11:16;;;;;;;15.03;10.20;;;5.70;99.90;;;;;;5066209;28;20852;-69
2021/12/05 16:13:43;;;;;;;16.43;10.37;;;5.80;99.90;;;;;;5063613;28;20529;-69
2021/12/05 16:16:14;;;;;;;14.47;8.73;;;6.00;99.90;;;;;;5062710;28;20427;-69
2021/12/05 16:18:42;;;;;;;9.40;7.40;;;6.00;99.90;;;;;;5061516;28;20458;-67
2021/12/05 16:21:16;;;;;;;14.63;8.70;;;6.10;99.90;;;;;;5063040;28;20483;-68
2021/12/05 16:23:42;;;;;;;13.30;8.07;;;6.10;99.90;;;;;;5063135;28;20439;-70
2021/12/05 16:26:09;;;;;;;12.50;7.27;;;6.10;99.90;;;;;;5062390;28;20461;-71
2021/12/05 16:28:38;;;;;;;18.67;11.43;;;6.20;99.90;;;;;;5061093;28;20288;-70
2021/12/05 16:31:23;;;;;;;14.02;8.82;;;6.20;99.90;;;;;;5061817;28;20591;-70
2021/12/05 16:33:51;;;;;;;12.90;8.53;;;6.20;99.90;;;;;;5054671;28;20393;-69
2021/12/05 16:36:19;;;;;;;16.17;9.13;;;6.20;99.90;;;;;;5061431;28;20418;-70
2021/12/05 16:38:50;;;;;;;13.77;8.93;;;6.20;99.90;;;;;;5064828;28;20434;-69
2021/12/05 16:41:28;;;;;;;17.87;10.40;;;6.20;99.90;;;;;;5070191;28;20426;-69
2021/12/05 16:44:05;;;;;;;13.80;9.30;;;6.20;99.90;;;;;;5063794;28;20888;-70
2021/12/05 16:46:46;;;;;;;14.00;9.07;;;6.20;99.90;;;;;;5052866;28;20458;-69
2021/12/05 16:49:16;;;;;;;19.73;10.90;;;6.30;99.90;;;;;;5048419;28;20449;-72
2021/12/05 16:51:49;;;;;;;16.13;10.30;;;6.30;99.90;;;;;;5062393;28;20817;-70
2021/12/05 16:54:43;;;;;;;17.30;10.10;;;6.20;99.90;;;;;;5061606;28;20449;-70
2021/12/05 16:57:18;;;;;;;19.07;10.07;;;6.20;99.90;;;;;;5060878;28;20778;-70
2021/12/05 16:59:52;;;;;;;14.80;8.10;;;6.10;99.90;;;;;;5049883;28;21009;-70
2021/12/05 17:02:24;;;;;;;13.20;7.80;;;6.10;99.90;;;;;;5048717;28;20422;-71
2021/12/05 17:04:57;;;;;;;13.23;8.83;;;6.10;99.90;;;;;;5039120;28;20420;-71
2021/12/05 17:07:43;;;;;;;14.30;8.27;;;6.10;99.90;;;;;;5047572;28;20539;-71
2021/12/05 17:10:21;;;;;;;12.60;7.70;;;6.10;99.90;;;;;;5049083;28;20423;-70
2021/12/05 17:12:51;;;;;;;11.83;7.77;;;6.00;99.90;;;;;;5057179;28;20415;-70
2021/12/05 17:15:29;;;;;;;11.53;5.97;;;6.00;99.90;;;;;;5057655;28;20432;-70
2021/12/05 17:18:02;;;;;;;7.80;6.23;;;6.00;99.90;;;;;;5048018;28;20470;-70
2021/12/05 17:20:33;;;;;;;7.60;4.60;;;6.00;99.90;;;;;;5049652;28;20657;-71
2021/12/05 17:23:02;;;;;;;9.30;5.17;;;6.00;99.90;;;;;;5047678;28;20447;-72
2021/12/05 17:25:33;;;;;;;17.23;11.10;;;5.90;99.90;;;;;;5049379;28;20722;-70
2021/12/05 17:28:01;;;;;;;21.83;12.60;;;5.90;99.90;;;;;;5048728;28;20472;-73
2021/12/05 17:30:26;;;;;;;17.17;10.83;;;5.80;99.90;;;;;;5049903;28;20423;-69
2021/12/05 17:32:52;;;;;;;13.20;8.50;;;5.80;99.90;;;;;;5048362;28;20420;-70
2021/12/05 17:35:18;;;;;;;9.47;6.70;;;5.70;99.90;;;;;;5049645;28;20651;-71
2021/12/05 17:37:45;;;;;;;9.70;6.40;;;5.70;99.90;;;;;;5047519;28;20301;-71
2021/12/05 17:40:13;;;;;;;10.00;6.60;;;5.70;99.90;;;;;;5048752;28;20222;-73
2021/12/05 17:42:39;;;;;;;12.70;8.23;;;4.30;99.90;;;;;;5049175;28;20989;-74
2021/12/05 17:45:08;;;;;;;8.80;7.13;;;5.60;99.90;;;;;;5052698;28;20920;-69
2021/12/05 17:47:34;;;;;;;11.90;7.60;;;5.60;99.90;;;;;;5047556;28;20489;-72
2021/12/05 17:50:05;;;;;;;12.40;7.43;;;5.60;99.90;;;;;;5056928;28;20746;-72
2021/12/05 17:52:32;;;;;;;9.13;6.20;;;5.60;99.90;;;;;;5048290;28;20533;-68
2021/12/05 17:55:06;;;;;;;9.73;5.77;;;5.60;99.90;;;;;;5049119;28;20415;-72
2021/12/05 17:57:42;;;;;;;10.10;6.70;;;5.70;99.90;;;;;;5047681;28;20535;-70
2021/12/05 18:00:23;;;;;;;8.40;5.90;;;5.60;99.90;;;;;;5052698;28;20420;-70
2021/12/05 18:02:55;;;;;;;9.00;4.97;;;5.60;99.90;;;;;;5047501;28;20526;-71
2021/12/05 18:05:38;;;;;;;8.80;4.50;;;5.60;99.90;;;;;;5049418;28;20454;-72
2021/12/05 18:08:10;;;;;;;5.03;3.43;;;5.70;99.90;;;;;;5045235;28;21000;-69
2021/12/05 18:10:39;;;;;;;6.90;4.40;;;5.70;99.90;;;;;;5048395;28;20424;-69
2021/12/05 18:13:10;;;;;;;6.20;3.80;;;5.70;99.90;;;;;;5059041;28;20415;-68
2021/12/05 18:15:37;;;;;;;4.37;3.77;;;5.70;99.90;;;;;;5048478;28;20499;-68
2021/12/05 18:18:05;;;;;;;6.73;4.37;;;5.70;99.90;;;;;;5045802;28;20443;-71
2021/12/05 18:20:33;;;;;;;8.57;5.80;;;5.80;99.90;;;;;;5048472;28;20416;-69
2021/12/05 18:23:01;;;;;;;7.03;4.50;;;5.80;99.90;;;;;;5063101;28;20489;-68
2021/12/05 18:25:30;;;;;;;8.43;4.80;;;5.80;99.90;;;;;;5047786;28;20477;-68
2021/12/05 18:27:56;;;;;;;5.83;4.50;;;5.80;99.90;;;;;;5047868;28;20463;-68
2021/12/05 18:30:24;;;;;;;5.77;4.30;;;5.80;99.90;;;;;;5048232;28;20498;-69
2021/12/05 18:32:51;;;;;;;3.80;3.30;;;5.90;99.90;;;;;;5062450;28;20430;-72
2021/12/05 18:35:17;;;;;;;5.43;3.53;;;5.90;99.90;;;;;;5047349;28;20963;-69
2021/12/05 18:37:44;;;;;;;6.93;4.00;;;5.90;99.90;;;;;;5045517;28;20440;-69
2021/12/05 18:40:12;;;;;;;7.90;4.33;;;5.90;99.90;;;;;;5054766;28;20423;-68
2021/12/05 18:42:38;;;;;;;7.57;5.07;;;5.80;99.90;;;;;;5069299;28;20419;-69
2021/12/05 18:45:06;;;;;;;7.93;5.67;;;5.80;99.90;;;;;;5046236;28;20443;-68
2021/12/05 18:47:32;;;;;;;14.57;8.20;;;5.80;99.90;;;;;;5046735;28;21018;-69
2021/12/05 18:49:58;;;;;;;11.63;6.40;;;5.90;99.90;;;;;;5046925;28;20420;-71
2021/12/05 18:52:25;;;;;;;6.50;4.80;;;5.90;99.90;;;;;;5045528;28;20682;-69
2021/12/05 18:54:52;;;;;;;7.47;4.67;;;5.90;99.90;;;;;;5047964;28;20408;-69
2021/12/05 18:57:24;;;;;;;7.10;4.73;;;5.90;99.90;;;;;;5062152;28;20420;-69
2021/12/05 19:00:01;;;;;;;5.80;4.70;;;5.90;99.90;;;;;;5047715;28;20416;-69
2021/12/05 19:05:18;;;;;;;10.03;6.60;;;5.90;99.90;;;;;;5048030;28;20505;-70
2021/12/05 19:13:14;;;;;;;7.93;5.70;;;5.80;99.90;;;;;;5059171;28;20429;-70
2021/12/05 19:15:39;;;;;;;9.67;4.93;;;5.70;99.90;;;;;;5047382;28;20423;-70
2021/12/05 19:18:06;;;;;;;8.80;5.97;;;5.70;99.90;;;;;;5045881;28;20262;-71
2021/12/05 19:20:32;;;;;;;10.70;5.60;;;5.60;99.90;;;;;;5045344;28;20181;-72
2021/12/05 19:22:58;;;;;;;6.77;4.60;;;5.60;99.90;;;;;;5046581;28;20434;-73
2021/12/05 19:25:31;;;;;;;7.27;5.23;;;5.60;99.90;;;;;;5062394;28;20212;-74
2021/12/05 19:27:59;;;;;;;5.07;4.40;;;5.60;99.90;;;;;;5061312;28;20463;-69
2021/12/05 19:30:34;;;;;;;4.77;3.63;;;5.60;99.90;;;;;;5046561;28;20542;-72
2021/12/05 19:33:00;;;;;;;7.47;5.10;;;5.60;99.90;;;;;;5046712;28;20406;-71
2021/12/05 19:35:27;;;;;;;8.13;5.50;;;5.60;99.90;;;;;;5047143;28;20428;-72
2021/12/05 19:37:53;;;;;;;10.33;6.07;;;5.60;99.90;;;;;;5045945;28;20482;-71
2021/12/05 19:40:22;;;;;;;10.87;5.70;;;5.60;99.90;;;;;;5062169;28;20428;-71
2021/12/05 19:42:50;;;;;;;6.80;5.33;;;5.50;99.90;;;;;;5046629;28;20453;-70
2021/12/05 19:45:16;;;;;;;8.80;5.00;;;5.30;99.90;;;;;;5033545;28;20561;-72
2021/12/05 19:47:42;;;;;;;9.93;5.83;;;5.40;99.90;;;;;;5060851;28;20637;-71
2021/12/05 19:50:10;;;;;;;6.63;4.90;;;5.40;99.90;;;;;;5046706;28;20521;-72
2021/12/05 19:52:35;;;;;;;7.00;4.83;;;5.40;99.90;;;;;;5046675;28;20235;-70
2021/12/05 19:55:01;;;;;;;5.40;4.37;;;5.40;99.90;;;;;;5046725;28;21041;-71
2021/12/05 19:57:27;;;;;;;8.80;5.57;;;5.40;99.90;;;;;;5045910;28;20180;-70
2021/12/05 19:59:53;;;;;;;6.30;4.90;;;5.30;99.90;;;;;;5047075;28;20446;-69
2021/12/05 20:02:20;;;;;;;9.07;5.50;;;5.40;99.90;;;;;;5045664;28;20271;-72
2021/12/05 20:04:47;;;;;;;8.73;5.00;;;5.40;99.90;;;;;;5045716;28;20191;-70
2021/12/05 20:07:13;;;;;;;6.17;5.20;;;5.50;99.90;;;;;;5043826;28;20816;-70
2021/12/05 20:09:39;;;;;;;7.50;5.70;;;5.40;99.90;;;;;;5046665;28;20422;-69
2021/12/05 20:12:05;;;;;;;9.13;4.90;;;5.50;99.90;;;;;;5049975;28;20173;-71
2021/12/05 20:14:31;;;;;;;10.00;5.17;;;5.50;99.90;;;;;;5045208;28;20173;-70
2021/12/05 20:16:56;;;;;;;7.97;5.50;;;5.60;99.90;;;;;;5060637;28;20755;-73
2021/12/05 20:19:23;;;;;;;16.00;6.90;;;5.70;99.90;;;;;;5061366;28;20213;-69
2021/12/05 20:21:51;;;;;;;8.87;5.10;;;5.70;99.90;;;;;;5046204;28;20674;-68
2021/12/05 20:24:20;;;;;;;7.70;4.50;;;5.60;99.90;;;;;;5045661;28;20485;-72
2021/12/05 20:26:46;;;;;;;12.03;7.40;;;5.60;99.90;;;;;;5045093;28;20517;-72
2021/12/05 20:29:12;;;;;;;11.60;7.50;;;5.40;99.90;;;;;;5040163;28;20474;-71
2021/12/05 20:31:41;;;;;;;7.67;5.93;;;5.20;99.90;;;;;;5043635;28;20419;-68
2021/12/05 20:34:08;;;;;;;12.97;7.03;;;5.40;99.90;;;;;;5045577;28;20184;-66
2021/12/05 20:36:34;;;;;;;8.80;6.77;;;5.40;99.90;;;;;;5048735;28;20789;-68
2021/12/05 20:39:00;;;;;;;8.80;6.40;;;5.40;99.90;;;;;;5048210;28;20451;-71
2021/12/05 20:41:26;;;;;;;10.83;6.63;;;5.40;99.90;;;;;;5058204;28;20884;-67
2021/12/05 20:43:52;;;;;;;7.40;5.70;;;5.40;99.90;;;;;;5061019;28;20699;-68
2021/12/05 20:46:18;;;;;;;8.73;6.87;;;5.30;99.90;;;;;;5048299;28;20228;-69
2021/12/05 20:48:44;;;;;;;11.27;7.37;;;5.20;99.90;;;;;;5048332;28;20820;-68
2021/12/05 20:51:10;;;;;;;13.07;7.70;;;5.20;99.90;;;;;;5049573;28;20427;-67
